createdAt,value
2019-06-01T00:54:15.888Z,13.28
2019-06-01T00:59:09.384Z,13.13
2019-06-01T01:04:03.996Z,12.95
2019-06-01T01:08:58.458Z,14.98
2019-06-01T01:13:53.555Z,14.87
2019-06-01T01:18:47.762Z,14.00
2019-06-01T01:23:41.337Z,14.33
2019-06-01T01:28:35.898Z,14.87
2019-06-01T01:33:30.465Z,19.12
2019-06-01T01:38:24.070Z,13.25
2019-06-01T01:43:22.640Z,13.00
2019-06-01T01:48:16.261Z,14.53
2019-06-01T01:53:09.992Z,17.40
2019-06-01T01:58:05.659Z,13.25
2019-06-01T02:03:00.112Z,17.98
2019-06-01T02:07:54.866Z,19.85
2019-06-01T02:12:48.565Z,15.13
2019-06-01T02:17:42.161Z,14.60
2019-06-01T02:22:35.791Z,14.70
2019-06-01T02:27:29.407Z,20.90
2019-06-01T02:32:38.088Z,16.95
2019-06-01T02:37:45.592Z,20.55
2019-06-01T02:42:40.614Z,15.65
2019-06-01T02:47:40.578Z,24.52
2019-06-01T02:52:34.282Z,16.42
2019-06-01T02:57:32.858Z,18.80
2019-06-01T03:02:33.600Z,17.95
2019-06-01T03:07:31.248Z,24.60
2019-06-01T03:12:27.787Z,18.67
2019-06-01T03:17:23.900Z,23.38
2019-06-01T03:22:20.015Z,20.90
2019-06-01T03:27:22.821Z,22.98
2019-06-01T03:32:34.106Z,24.23
2019-06-01T03:37:13.383Z,25.20
2019-06-01T03:42:07.982Z,24.30
2019-06-01T03:47:07.576Z,21.83
2019-06-01T03:52:04.838Z,24.05
2019-06-01T03:57:09.193Z,23.75
2019-06-01T04:02:03.029Z,21.12
2019-06-01T04:07:03.307Z,21.37
2019-06-01T04:11:57.202Z,22.45
2019-06-01T04:16:56.630Z,26.97
2019-06-01T04:21:50.218Z,22.13
2019-06-01T04:26:53.211Z,21.25
2019-06-01T04:31:47.773Z,24.12
2019-06-01T04:36:41.369Z,25.10
2019-06-01T04:41:37.131Z,23.38
2019-06-01T04:46:36.515Z,21.37
2019-06-01T04:51:30.422Z,22.30
2019-06-01T04:56:24.000Z,22.60
2019-06-01T05:01:17.603Z,25.23
2019-06-01T05:06:11.369Z,22.62
2019-06-01T05:11:06.643Z,19.37
2019-06-01T05:16:00.341Z,25.23
2019-06-01T05:20:56.666Z,24.55
2019-06-01T05:25:58.517Z,22.93
2019-06-01T05:35:54.121Z,20.17
2019-06-01T05:40:52.676Z,20.68
2019-06-01T05:45:46.306Z,20.55
2019-06-01T05:50:48.985Z,20.35
2019-06-01T05:55:42.652Z,18.82
2019-06-01T06:00:40.877Z,14.10
2019-06-01T06:05:34.459Z,18.02
2019-06-01T06:10:40.179Z,20.00
2019-06-01T06:15:33.902Z,16.90
2019-06-01T06:20:27.902Z,21.68
2019-06-01T06:25:30.528Z,15.72
2019-06-01T06:30:23.106Z,17.97
2019-06-01T06:35:24.623Z,17.62
2019-06-01T06:40:20.030Z,12.93
2019-06-01T06:45:17.135Z,16.25
2019-06-01T06:50:17.715Z,13.00
2019-06-01T06:55:19.809Z,13.10
2019-06-01T07:00:16.383Z,13.15
2019-06-01T07:05:25.764Z,12.43
2019-06-01T07:10:44.783Z,10.78
2019-06-01T07:15:54.495Z,14.23
2019-06-01T07:21:04.751Z,12.78
2019-06-01T07:26:17.418Z,12.65
2019-06-01T07:53:24.017Z,13.58
2019-06-01T07:58:48.598Z,11.30
2019-06-01T08:04:08.708Z,9.23
2019-06-01T08:09:26.571Z,10.72
2019-06-01T08:14:41.962Z,12.45
2019-06-01T08:20:18.970Z,12.55
2019-06-01T08:37:11.276Z,11.48
2019-06-01T08:42:21.146Z,10.20
2019-06-01T08:47:13.727Z,8.28
2019-06-01T08:57:35.568Z,11.10
2019-06-01T09:02:56.549Z,12.90
2019-06-01T09:13:36.519Z,9.83
2019-06-01T09:24:53.537Z,9.43
2019-06-01T15:16:33.452Z,5.00
2019-06-01T15:21:27.008Z,5.95
2019-06-01T15:26:20.855Z,7.67
2019-06-01T15:31:15.730Z,8.13
2019-06-01T15:36:09.825Z,5.47
2019-06-01T15:41:03.556Z,7.83
2019-06-01T15:45:57.597Z,9.50
2019-06-01T15:50:51.642Z,5.30
2019-06-01T15:55:48.465Z,5.87
2019-06-01T16:00:42.273Z,6.78
2019-06-01T16:05:36.868Z,10.15
2019-06-01T16:10:30.408Z,10.43
2019-06-01T16:15:27.064Z,9.90
2019-06-01T16:20:28.516Z,10.40
2019-06-01T16:25:28.148Z,8.43
2019-06-01T16:30:21.694Z,10.65
2019-06-01T16:35:15.321Z,13.40
2019-06-01T16:40:10.524Z,10.55
2019-06-01T16:45:07.791Z,8.25
2019-06-01T16:50:07.166Z,8.60
2019-06-01T16:55:00.712Z,7.53
2019-06-01T16:59:56.259Z,10.58
2019-06-01T17:04:58.820Z,7.33
2019-06-01T17:09:52.361Z,8.55
2019-06-01T17:14:49.564Z,8.10
2019-06-01T17:19:44.049Z,7.77
2019-06-01T17:24:37.669Z,9.68
2019-06-01T17:29:37.261Z,11.10
2019-06-01T17:34:30.816Z,8.20
2019-06-01T17:39:24.492Z,9.25
2019-06-01T17:44:18.033Z,10.78
2019-06-01T17:49:12.417Z,10.15
2019-06-01T17:54:07.081Z,8.35
2019-06-01T17:59:03.287Z,9.00
2019-06-01T18:03:57.904Z,10.65
2019-06-01T18:08:51.400Z,8.13
2019-06-01T18:13:44.884Z,7.08
2019-06-01T18:18:39.213Z,11.38
2019-06-01T18:23:33.772Z,8.40
2019-06-01T18:28:27.334Z,6.58
2019-06-01T18:33:21.403Z,9.63
2019-06-01T18:38:15.010Z,6.85
2019-06-01T18:43:12.094Z,9.63
2019-06-01T18:48:08.177Z,10.25
2019-06-01T18:53:01.776Z,9.28
2019-06-01T18:57:59.518Z,13.60
2019-06-01T19:02:54.258Z,8.40
2019-06-01T19:07:49.005Z,5.83
2019-06-01T19:12:42.865Z,6.62
2019-06-01T19:17:36.516Z,9.85
2019-06-01T19:22:30.071Z,8.45
2019-06-01T19:27:23.620Z,7.10
2019-06-01T19:32:20.965Z,10.55
2019-06-01T19:37:15.168Z,13.22
2019-06-01T19:42:17.359Z,13.62
2019-06-01T19:47:19.230Z,9.90
2019-06-01T19:52:12.874Z,9.98
2019-06-01T19:57:06.355Z,8.63
2019-06-01T20:02:01.900Z,12.33
2019-06-01T20:06:57.425Z,7.65
2019-06-01T20:12:01.233Z,6.65
2019-06-01T20:16:48.012Z,12.70
2019-06-01T20:21:41.497Z,9.10
2019-06-01T20:26:41.987Z,8.85
2019-06-01T20:31:30.192Z,12.30
2019-06-01T20:36:23.739Z,12.93
2019-06-01T20:41:18.564Z,7.08
2019-06-01T20:46:12.849Z,9.88
2019-06-01T20:51:08.279Z,15.28
2019-06-01T20:56:02.706Z,12.13
2019-06-01T21:00:56.329Z,10.85
